Time;durP1;ratioP1;P1;durP2;ratioP2;P2;SDS_P1;SDS_P2;PMS_P1;PMS_P2;Temp;Humidity;BMP_temperature;BMP_pressure;BME280_temperature;BME280_humidity;BME280_pressure;Samples;Min_cycle;Max_cycle;Signal;HPM_P1;HPM_P2
2022/12/24 00:01:15;;;;;;;37.50;6.97;;;;;;;;;;5049039;28;20271;-81
2022/12/24 00:03:41;;;;;;;36.40;6.30;;;;;;;;;;5038547;28;20196;-81
2022/12/24 00:06:08;;;;;;;34.33;6.53;;;;;;;;;;5038455;28;20184;-81
2022/12/24 00:08:34;;;;;;;32.73;6.93;;;;;;;;;;5054966;28;20180;-82
2022/12/24 00:11:00;;;;;;;33.80;6.37;;;;;;;;;;5055926;28;20200;-82
2022/12/24 00:13:26;;;;;;;30.87;6.27;;;;;;;;;;5054805;28;20242;-82
2022/12/24 00:15:52;;;;;;;31.03;7.13;;;;;;;;;;5055897;28;20195;-82
2022/12/24 00:18:18;;;;;;;36.40;6.70;;;;;;;;;;5041176;28;20230;-82
2022/12/24 00:20:48;;;;;;;30.70;6.40;;;;;;;;;;5057817;28;20186;-82
2022/12/24 00:23:14;;;;;;;36.03;6.93;;;;;;;;;;5058485;28;20188;-81
2022/12/24 00:25:40;;;;;;;32.67;6.90;;;;;;;;;;5075415;28;20179;-81
2022/12/24 00:28:06;;;;;;;35.63;6.77;;;;;;;;;;5058054;28;20221;-82
2022/12/24 00:30:32;;;;;;;34.73;7.33;;;;;;;;;;5074124;28;20175;-84
2022/12/24 00:32:58;;;;;;;35.10;6.80;;;;;;;;;;5046387;28;20179;-84
2022/12/24 00:35:25;;;;;;;35.77;6.77;;;;;;;;;;5057364;28;20248;-84
2022/12/24 00:37:51;;;;;;;33.97;6.37;;;;;;;;;;5063642;28;20259;-84
2022/12/24 00:40:17;;;;;;;36.20;7.03;;;;;;;;;;5054459;28;20262;-84
2022/12/24 00:42:43;;;;;;;35.03;6.33;;;;;;;;;;5056313;28;20171;-84
2022/12/24 00:45:10;;;;;;;38.60;7.43;;;;;;;;;;5074341;28;20190;-83
2022/12/24 00:47:36;;;;;;;31.47;6.83;;;;;;;;;;5052430;28;20219;-82
2022/12/24 00:50:02;;;;;;;34.67;6.10;;;;;;;;;;5037946;28;20196;-82
2022/12/24 00:52:28;;;;;;;31.43;7.27;;;;;;;;;;5070184;28;20179;-82
2022/12/24 00:54:54;;;;;;;34.80;6.50;;;;;;;;;;5073854;28;20214;-82
2022/12/24 00:57:20;;;;;;;33.40;7.10;;;;;;;;;;5065573;28;20192;-82
2022/12/24 00:59:46;;;;;;;42.50;7.53;;;;;;;;;;5062031;28;20192;-82
2022/12/24 01:02:12;;;;;;;38.50;6.53;;;;;;;;;;5043559;28;20175;-86
2022/12/24 01:07:23;;;;;;;32.47;6.63;;;;;;;;;;5054349;28;20195;-87
2022/12/24 01:09:49;;;;;;;33.00;6.67;;;;;;;;;;5037289;28;20184;-86
2022/12/24 01:12:15;;;;;;;32.20;7.03;;;;;;;;;;5037304;28;20190;-87
2022/12/24 01:14:41;;;;;;;37.87;7.17;;;;;;;;;;5037229;28;20218;-87
2022/12/24 01:17:07;;;;;;;33.53;6.97;;;;;;;;;;5053750;28;20180;-87
2022/12/24 01:19:33;;;;;;;35.57;6.73;;;;;;;;;;5053564;28;20203;-84
2022/12/24 01:21:59;;;;;;;33.23;6.60;;;;;;;;;;5064046;28;20262;-85
2022/12/24 01:24:25;;;;;;;32.37;6.57;;;;;;;;;;5057463;28;20182;-84
2022/12/24 01:26:51;;;;;;;31.93;6.63;;;;;;;;;;5054550;28;20180;-85
2022/12/24 01:29:17;;;;;;;43.90;7.13;;;;;;;;;;5036874;28;20180;-85
2022/12/24 01:31:43;;;;;;;36.60;6.83;;;;;;;;;;5054334;28;20168;-84
2022/12/24 01:34:09;;;;;;;31.77;6.70;;;;;;;;;;5053145;28;20176;-84
2022/12/24 01:36:35;;;;;;;33.50;7.43;;;;;;;;;;5036710;28;20219;-85
2022/12/24 01:39:01;;;;;;;40.57;7.03;;;;;;;;;;5053270;28;20180;-84
2022/12/24 01:44:20;;;;;;;44.00;7.50;;;;;;;;;;5054613;28;20195;-85
2022/12/24 01:46:47;;;;;;;32.77;6.80;;;;;;;;;;5054123;28;20228;-85
2022/12/24 01:49:14;;;;;;;41.07;7.60;;;;;;;;;;5036930;28;20230;-85
2022/12/24 01:51:44;;;;;;;37.53;7.60;;;;;;;;;;5053113;28;20184;-83
2022/12/24 01:54:36;;;;;;;37.93;6.57;;;;;;;;;;5053262;28;20214;-83
2022/12/24 01:57:04;;;;;;;40.53;6.70;;;;;;;;;;5051214;28;20196;-82
2022/12/24 01:59:31;;;;;;;34.30;6.87;;;;;;;;;;5053247;28;20180;-82
2022/12/24 02:01:58;;;;;;;41.87;7.70;;;;;;;;;;5036591;28;20180;-82
2022/12/24 02:04:46;;;;;;;37.10;7.17;;;;;;;;;;5053848;28;20184;-82
2022/12/24 02:07:12;;;;;;;39.67;7.10;;;;;;;;;;5052952;28;20263;-82
2022/12/24 02:09:38;;;;;;;44.77;7.60;;;;;;;;;;5053170;28;20259;-82
2022/12/24 02:12:05;;;;;;;45.47;8.00;;;;;;;;;;5036321;28;20176;-82
2022/12/24 02:14:31;;;;;;;39.77;7.50;;;;;;;;;;5053122;28;20176;-82
2022/12/24 02:17:20;;;;;;;40.57;7.67;;;;;;;;;;5036589;28;20184;-82
2022/12/24 02:20:02;;;;;;;39.07;7.60;;;;;;;;;;5047762;28;20266;-83
2022/12/24 02:22:28;;;;;;;43.03;7.80;;;;;;;;;;5052665;28;20195;-82
2022/12/24 02:25:04;;;;;;;38.13;7.47;;;;;;;;;;5053166;28;20219;-82
2022/12/24 02:27:39;;;;;;;38.80;7.17;;;;;;;;;;5053747;28;20180;-82
2022/12/24 02:30:05;;;;;;;42.70;7.03;;;;;;;;;;5067149;28;20175;-82
2022/12/24 02:32:40;;;;;;;41.70;7.57;;;;;;;;;;5060267;28;20179;-82
2022/12/24 02:35:12;;;;;;;40.43;7.77;;;;;;;;;;5057837;28;20265;-82
2022/12/24 02:37:50;;;;;;;36.50;7.43;;;;;;;;;;5073537;28;20178;-82
2022/12/24 02:40:19;;;;;;;36.60;6.53;;;;;;;;;;5072270;28;20183;-82
2022/12/24 02:42:48;;;;;;;34.30;6.73;;;;;;;;;;5053466;28;20172;-82
2022/12/24 02:45:16;;;;;;;41.80;7.53;;;;;;;;;;5052556;28;20180;-82
2022/12/24 02:47:43;;;;;;;37.10;7.20;;;;;;;;;;5052379;28;20238;-82
2022/12/24 02:50:13;;;;;;;36.27;6.93;;;;;;;;;;5052536;28;20187;-82
2022/12/24 02:52:40;;;;;;;34.67;6.97;;;;;;;;;;5052578;28;20180;-82
2022/12/24 02:55:33;;;;;;;39.37;7.10;;;;;;;;;;5057069;28;20208;-82
2022/12/24 02:58:17;;;;;;;31.33;6.40;;;;;;;;;;5040776;28;20184;-82
2022/12/24 03:00:43;;;;;;;35.53;7.07;;;;;;;;;;5056418;28;20266;-87
2022/12/24 03:03:18;;;;;;;35.83;6.63;;;;;;;;;;5057119;28;20250;-87
2022/12/24 03:05:44;;;;;;;38.37;6.43;;;;;;;;;;5056153;28;20183;-82
2022/12/24 03:08:32;;;;;;;39.37;6.93;;;;;;;;;;5056239;28;20187;-82
2022/12/24 03:11:04;;;;;;;33.53;7.03;;;;;;;;;;5055921;28;20263;-82
2022/12/24 03:13:31;;;;;;;32.77;6.33;;;;;;;;;;5056155;28;20183;-82
2022/12/24 03:15:57;;;;;;;41.03;7.20;;;;;;;;;;5058007;28;20219;-87
2022/12/24 03:18:24;;;;;;;38.33;6.43;;;;;;;;;;5061885;28;20203;-87
2022/12/24 03:21:10;;;;;;;37.00;6.43;;;;;;;;;;5055945;28;20255;-88
2022/12/24 03:23:37;;;;;;;32.43;6.03;;;;;;;;;;5056611;28;20176;-87
2022/12/24 03:26:07;;;;;;;33.87;6.53;;;;;;;;;;5055858;28;20338;-88
2022/12/24 03:28:34;;;;;;;33.37;6.67;;;;;;;;;;5055743;28;20237;-87
2022/12/24 03:31:01;;;;;;;46.40;7.50;;;;;;;;;;5055680;28;20181;-87
2022/12/24 03:33:27;;;;;;;32.47;6.60;;;;;;;;;;5056717;28;20234;-82
2022/12/24 03:35:53;;;;;;;42.03;7.70;;;;;;;;;;5041825;28;20211;-82
2022/12/24 03:38:19;;;;;;;36.90;6.47;;;;;;;;;;5076657;28;20183;-82
2022/12/24 03:40:45;;;;;;;34.20;6.73;;;;;;;;;;5075211;28;20183;-82
2022/12/24 03:43:11;;;;;;;34.77;6.20;;;;;;;;;;5059298;28;20183;-82
2022/12/24 03:45:37;;;;;;;41.03;6.90;;;;;;;;;;5051348;28;20180;-82
2022/12/24 03:48:03;;;;;;;36.80;6.73;;;;;;;;;;5064087;28;20293;-82
2022/12/24 03:50:29;;;;;;;37.93;7.20;;;;;;;;;;5065511;28;20190;-82
2022/12/24 03:52:55;;;;;;;42.63;7.40;;;;;;;;;;5052839;28;20188;-82
2022/12/24 03:55:21;;;;;;;47.10;7.80;;;;;;;;;;5065011;28;20199;-82
2022/12/24 03:57:48;;;;;;;33.03;6.93;;;;;;;;;;5066265;28;20201;-82
2022/12/24 04:00:14;;;;;;;42.13;6.90;;;;;;;;;;5081187;28;20183;-82
2022/12/24 04:02:40;;;;;;;44.80;7.33;;;;;;;;;;5048534;28;20255;-82
2022/12/24 04:05:07;;;;;;;46.60;7.70;;;;;;;;;;5062604;28;20207;-87
2022/12/24 04:07:33;;;;;;;39.80;7.10;;;;;;;;;;5055297;28;20176;-87
2022/12/24 04:09:59;;;;;;;42.30;7.50;;;;;;;;;;5066476;28;20188;-87
2022/12/24 04:12:25;;;;;;;51.27;8.20;;;;;;;;;;5062725;28;20184;-86
2022/12/24 04:14:51;;;;;;;44.00;7.77;;;;;;;;;;5065459;28;20191;-87
2022/12/24 04:17:17;;;;;;;42.67;8.43;;;;;;;;;;5063774;28;20234;-87
2022/12/24 04:19:43;;;;;;;37.70;7.23;;;;;;;;;;5064136;28;20176;-87
2022/12/24 04:22:09;;;;;;;45.90;8.80;;;;;;;;;;5065524;28;20236;-86
2022/12/24 04:24:35;;;;;;;38.57;7.97;;;;;;;;;;5046611;28;20187;-86
2022/12/24 04:27:01;;;;;;;41.20;8.07;;;;;;;;;;5065250;28;20172;-87
2022/12/24 04:29:27;;;;;;;45.63;8.97;;;;;;;;;;5048246;28;20183;-87
2022/12/24 04:31:55;;;;;;;46.37;8.57;;;;;;;;;;5055380;28;20244;-87
2022/12/24 04:34:21;;;;;;;44.23;9.20;;;;;;;;;;5058296;28;20262;-87
2022/12/24 04:36:47;;;;;;;46.97;9.50;;;;;;;;;;5057796;28;20292;-87
2022/12/24 04:39:13;;;;;;;41.80;9.07;;;;;;;;;;5057785;28;20278;-82
2022/12/24 04:41:39;;;;;;;47.93;8.90;;;;;;;;;;5057678;28;20179;-83
2022/12/24 04:44:05;;;;;;;42.90;9.53;;;;;;;;;;5057810;28;20236;-88
2022/12/24 04:46:32;;;;;;;37.10;8.17;;;;;;;;;;5057435;28;20238;-87
2022/12/24 04:48:58;;;;;;;42.17;8.57;;;;;;;;;;5057633;28;20183;-83
2022/12/24 04:51:25;;;;;;;46.87;9.47;;;;;;;;;;5075319;28;20175;-88
2022/12/24 04:53:52;;;;;;;41.47;8.83;;;;;;;;;;5074407;28;20180;-87
2022/12/24 04:56:19;;;;;;;45.17;9.33;;;;;;;;;;5073610;28;20199;-83
2022/12/24 04:58:45;;;;;;;41.70;8.90;;;;;;;;;;5075049;28;20164;-83
2022/12/24 05:01:12;;;;;;;42.93;9.50;;;;;;;;;;5058054;28;20302;-83
2022/12/24 05:03:38;;;;;;;36.47;8.63;;;;;;;;;;5075353;28;20164;-83
2022/12/24 05:06:06;;;;;;;46.67;9.03;;;;;;;;;;5073744;28;20183;-83
2022/12/24 05:08:33;;;;;;;42.70;9.13;;;;;;;;;;5073793;28;20190;-83
2022/12/24 05:10:59;;;;;;;50.70;8.80;;;;;;;;;;5057427;28;20212;-83
2022/12/24 05:13:25;;;;;;;35.30;8.43;;;;;;;;;;5074962;28;20187;-88
2022/12/24 05:15:51;;;;;;;46.13;9.33;;;;;;;;;;5056439;28;20215;-88
2022/12/24 05:18:17;;;;;;;46.83;9.53;;;;;;;;;;5057111;28;20215;-88
2022/12/24 05:20:44;;;;;;;39.93;8.47;;;;;;;;;;5074106;28;20187;-85
2022/12/24 05:28:43;;;;;;;37.90;8.83;;;;;;;;;;5073922;28;20197;-85
2022/12/24 05:31:09;;;;;;;42.50;9.50;;;;;;;;;;5056967;28;20183;-85
2022/12/24 05:33:35;;;;;;;44.90;8.53;;;;;;;;;;5074541;28;20269;-85
2022/12/24 05:36:01;;;;;;;47.30;9.00;;;;;;;;;;5073401;28;20214;-85
2022/12/24 05:38:27;;;;;;;50.07;8.43;;;;;;;;;;5073107;28;20206;-85
2022/12/24 05:40:53;;;;;;;45.73;8.67;;;;;;;;;;5056793;28;20215;-85
2022/12/24 05:43:19;;;;;;;50.40;8.53;;;;;;;;;;5045768;28;20190;-85
2022/12/24 05:45:45;;;;;;;41.77;8.47;;;;;;;;;;5036787;28;20241;-84
2022/12/24 05:48:11;;;;;;;47.63;8.97;;;;;;;;;;5053083;28;20195;-84
2022/12/24 05:50:40;;;;;;;46.73;9.17;;;;;;;;;;5036612;28;20200;-84
2022/12/24 05:53:06;;;;;;;50.60;9.20;;;;;;;;;;5036581;28;20191;-85
2022/12/24 05:55:32;;;;;;;51.53;9.33;;;;;;;;;;5036725;28;20216;-84
2022/12/24 05:57:59;;;;;;;44.60;8.60;;;;;;;;;;5053219;28;20180;-84
2022/12/24 06:00:25;;;;;;;51.97;8.83;;;;;;;;;;5065438;23;20232;-87
2022/12/24 06:02:51;;;;;;;49.03;9.33;;;;;;;;;;5093471;28;20260;-87
2022/12/24 06:05:17;;;;;;;44.20;9.30;;;;;;;;;;5076559;28;20263;-87
2022/12/24 06:07:43;;;;;;;38.87;9.00;;;;;;;;;;5076406;28;20174;-87
2022/12/24 06:10:09;;;;;;;48.43;9.23;;;;;;;;;;5076479;28;20182;-83
2022/12/24 06:12:35;;;;;;;49.70;9.37;;;;;;;;;;5083600;28;20179;-83
2022/12/24 06:15:01;;;;;;;46.07;9.13;;;;;;;;;;5076309;28;20221;-83
2022/12/24 06:17:27;;;;;;;49.23;9.77;;;;;;;;;;5083136;28;20179;-83
2022/12/24 06:19:53;;;;;;;49.10;9.93;;;;;;;;;;5073259;28;20198;-83
2022/12/24 06:22:19;;;;;;;47.53;9.43;;;;;;;;;;5056359;28;20182;-83
2022/12/24 06:24:45;;;;;;;43.10;9.03;;;;;;;;;;5072655;28;20232;-83
2022/12/24 06:27:11;;;;;;;51.20;9.30;;;;;;;;;;5073379;28;20175;-83
2022/12/24 06:29:37;;;;;;;54.00;9.07;;;;;;;;;;5060516;28;20183;-83
2022/12/24 06:32:03;;;;;;;40.17;8.37;;;;;;;;;;5060861;28;20175;-83
2022/12/24 06:34:29;;;;;;;44.03;8.60;;;;;;;;;;5060607;28;20222;-83
2022/12/24 06:36:55;;;;;;;48.03;9.50;;;;;;;;;;5076779;28;20241;-83
2022/12/24 06:39:21;;;;;;;42.53;8.20;;;;;;;;;;5060340;28;20179;-83
2022/12/24 06:41:47;;;;;;;42.93;9.57;;;;;;;;;;5060431;28;20179;-83
2022/12/24 06:44:13;;;;;;;36.13;9.03;;;;;;;;;;5076879;28;20179;-83
2022/12/24 06:46:39;;;;;;;35.73;8.20;;;;;;;;;;5089668;28;20189;-84
2022/12/24 06:49:05;;;;;;;43.77;8.93;;;;;;;;;;5080073;28;20190;-83
2022/12/24 06:51:31;;;;;;;48.87;9.30;;;;;;;;;;5096823;28;20178;-83
2022/12/24 06:53:57;;;;;;;54.37;10.50;;;;;;;;;;5079910;28;20183;-86
2022/12/24 06:56:23;;;;;;;44.40;9.50;;;;;;;;;;5079861;28;20248;-87
2022/12/24 06:58:49;;;;;;;42.40;9.63;;;;;;;;;;5079748;28;20244;-87
2022/12/24 07:01:17;;;;;;;45.13;10.30;;;;;;;;;;5096611;28;20222;-87
2022/12/24 07:03:44;;;;;;;43.47;10.20;;;;;;;;;;5096727;28;20179;-87
2022/12/24 07:06:20;;;;;;;48.87;10.10;;;;;;;;;;5096965;28;20186;-88
2022/12/24 07:08:46;;;;;;;41.70;9.63;;;;;;;;;;5096990;28;20178;-82
2022/12/24 07:11:12;;;;;;;43.33;10.43;;;;;;;;;;5079944;28;20223;-82
2022/12/24 07:13:38;;;;;;;46.87;10.10;;;;;;;;;;5079522;28;20187;-82
2022/12/24 07:16:05;;;;;;;51.60;10.67;;;;;;;;;;5079470;28;20215;-82
2022/12/24 07:18:31;;;;;;;45.90;10.60;;;;;;;;;;5097537;28;20244;-82
2022/12/24 07:20:57;;;;;;;43.07;10.37;;;;;;;;;;5096881;28;20232;-82
2022/12/24 07:23:23;;;;;;;40.13;10.13;;;;;;;;;;5096088;28;20171;-83
2022/12/24 07:25:49;;;;;;;44.27;10.07;;;;;;;;;;5097310;28;20183;-88
2022/12/24 07:28:15;;;;;;;46.10;10.30;;;;;;;;;;5079504;28;20252;-88
2022/12/24 07:30:41;;;;;;;44.20;9.60;;;;;;;;;;5099073;28;20205;-88
2022/12/24 07:33:07;;;;;;;47.37;9.80;;;;;;;;;;5084830;28;20178;-88
2022/12/24 07:35:34;;;;;;;45.30;10.30;;;;;;;;;;5098629;28;20221;-87
2022/12/24 07:38:00;;;;;;;46.43;10.03;;;;;;;;;;5100622;28;20219;-88
2022/12/24 07:40:26;;;;;;;48.37;10.27;;;;;;;;;;5080602;28;20279;-87
2022/12/24 07:42:52;;;;;;;36.30;9.40;;;;;;;;;;5077915;28;20175;-86
2022/12/24 07:45:19;;;;;;;47.20;9.50;;;;;;;;;;5075821;28;20180;-85
2022/12/24 07:47:45;;;;;;;37.93;9.63;;;;;;;;;;5076549;28;20266;-85
2022/12/24 07:50:11;;;;;;;45.63;9.67;;;;;;;;;;5075400;28;20270;-86
2022/12/24 07:52:37;;;;;;;32.17;7.90;;;;;;;;;;5075748;28;20325;-85
2022/12/24 07:55:03;;;;;;;44.93;9.27;;;;;;;;;;5080673;28;20294;-86
2022/12/24 07:57:29;;;;;;;41.50;9.57;;;;;;;;;;5075646;28;20242;-85
2022/12/24 07:59:55;;;;;;;39.13;8.30;;;;;;;;;;5076237;28;20294;-83
2022/12/24 08:02:21;;;;;;;43.03;8.67;;;;;;;;;;5074907;28;20234;-83
2022/12/24 08:04:47;;;;;;;42.40;9.47;;;;;;;;;;5091908;28;20175;-83
2022/12/24 08:07:13;;;;;;;41.93;8.73;;;;;;;;;;5091703;28;20168;-83
2022/12/24 08:09:39;;;;;;;39.60;8.97;;;;;;;;;;5091835;28;20264;-83
2022/12/24 08:12:05;;;;;;;41.67;9.17;;;;;;;;;;5074933;28;20182;-83
2022/12/24 08:14:31;;;;;;;34.97;8.27;;;;;;;;;;5075519;28;20175;-82
2022/12/24 08:16:58;;;;;;;43.73;8.40;;;;;;;;;;5074854;28;20222;-82
2022/12/24 08:19:24;;;;;;;45.30;8.83;;;;;;;;;;5080081;28;20206;-83
2022/12/24 08:21:50;;;;;;;35.80;8.77;;;;;;;;;;5107548;28;20227;-83
2022/12/24 08:24:16;;;;;;;48.90;8.63;;;;;;;;;;5094874;28;20217;-83
2022/12/24 08:26:42;;;;;;;47.97;8.70;;;;;;;;;;5074721;28;20184;-83
2022/12/24 08:29:08;;;;;;;40.43;8.57;;;;;;;;;;5074694;28;20183;-83
2022/12/24 08:31:35;;;;;;;46.87;9.50;;;;;;;;;;5091866;28;20184;-83
2022/12/24 08:34:04;;;;;;;39.13;8.33;;;;;;;;;;5098315;28;20185;-83
2022/12/24 08:36:30;;;;;;;40.10;8.23;;;;;;;;;;5114948;28;20202;-83
2022/12/24 08:38:56;;;;;;;37.47;9.17;;;;;;;;;;5078203;28;20184;-83
2022/12/24 08:41:22;;;;;;;39.80;8.77;;;;;;;;;;5090111;28;20174;-83
2022/12/24 08:43:48;;;;;;;36.33;8.57;;;;;;;;;;5114850;28;20223;-83
2022/12/24 08:46:15;;;;;;;34.77;8.17;;;;;;;;;;5098400;28;20178;-83
2022/12/24 08:48:41;;;;;;;36.50;8.30;;;;;;;;;;5114988;28;20179;-85
2022/12/24 08:51:10;;;;;;;47.90;8.90;;;;;;;;;;5098161;28;20213;-85
2022/12/24 08:53:37;;;;;;;42.97;9.07;;;;;;;;;;5100847;28;20183;-85
2022/12/24 08:56:10;;;;;;;34.80;8.90;;;;;;;;;;5095364;28;20206;-85
2022/12/24 08:58:36;;;;;;;33.13;8.77;;;;;;;;;;5095320;28;20183;-85
2022/12/24 09:01:09;;;;;;;39.37;9.27;;;;;;;;;;5095113;28;20223;-84
2022/12/24 09:03:35;;;;;;;39.23;8.00;;;;;;;;;;5094224;28;20186;-85
2022/12/24 09:06:03;;;;;;;42.87;8.67;;;;;;;;;;5077347;28;20178;-82
2022/12/24 09:08:29;;;;;;;39.47;9.10;;;;;;;;;;5094046;28;20178;-82
2022/12/24 09:10:55;;;;;;;44.47;8.57;;;;;;;;;;5095755;28;20181;-82
2022/12/24 09:13:21;;;;;;;45.57;9.97;;;;;;;;;;5079354;28;20182;-82
2022/12/24 09:15:56;;;;;;;44.50;9.70;;;;;;;;;;5090414;28;20240;-82
2022/12/24 09:18:22;;;;;;;34.97;9.17;;;;;;;;;;5104099;28;20193;-82
2022/12/24 09:20:48;;;;;;;40.50;9.47;;;;;;;;;;5084574;28;20194;-82
2022/12/24 09:23:14;;;;;;;41.07;9.70;;;;;;;;;;5077021;28;20225;-86
2022/12/24 09:25:41;;;;;;;42.63;9.47;;;;;;;;;;5097128;28;20178;-87
2022/12/24 09:28:07;;;;;;;48.67;10.10;;;;;;;;;;5097048;28;20227;-86
2022/12/24 09:30:33;;;;;;;44.17;10.00;;;;;;;;;;5097125;28;20231;-87
2022/12/24 09:32:59;;;;;;;48.77;11.23;;;;;;;;;;5113643;28;20178;-87
2022/12/24 09:35:25;;;;;;;39.83;9.53;;;;;;;;;;5080095;28;20207;-88
2022/12/24 09:38:01;;;;;;;42.93;10.13;;;;;;;;;;5063039;28;20194;-87
2022/12/24 09:40:32;;;;;;;37.03;10.03;;;;;;;;;;5058183;28;20179;-87
2022/12/24 09:42:59;;;;;;;35.73;10.00;;;;;;;;;;5077769;28;20178;-87
2022/12/24 09:45:34;;;;;;;37.80;9.40;;;;;;;;;;5077333;28;20186;-87
2022/12/24 09:48:09;;;;;;;44.83;11.77;;;;;;;;;;5092777;28;20409;-86
2022/12/24 09:50:40;;;;;;;40.10;10.43;;;;;;;;;;5094708;28;20174;-87
2022/12/24 09:53:14;;;;;;;31.70;9.33;;;;;;;;;;5080750;28;20176;-87
2022/12/24 09:55:45;;;;;;;38.47;10.40;;;;;;;;;;5073211;28;20242;-82
2022/12/24 09:58:19;;;;;;;37.13;10.20;;;;;;;;;;5073121;28;20242;-82
2022/12/24 10:00:45;;;;;;;43.00;11.23;;;;;;;;;;5073006;28;20223;-82
2022/12/24 10:03:15;;;;;;;44.70;10.13;;;;;;;;;;5072903;28;20176;-82
2022/12/24 10:05:53;;;;;;;40.47;11.33;;;;;;;;;;5073185;28;20171;-82
2022/12/24 10:08:22;;;;;;;39.15;10.93;;;;;;;;;;5072161;28;20406;-82
2022/12/24 10:10:51;;;;;;;44.33;10.10;;;;;;;;;;5073146;28;20241;-83
2022/12/24 10:13:31;;;;;;;39.73;10.23;;;;;;;;;;5088784;28;20191;-82
2022/12/24 10:16:03;;;;;;;39.73;9.27;;;;;;;;;;5109534;28;20209;-82
2022/12/24 10:18:33;;;;;;;34.27;9.23;;;;;;;;;;5093056;28;20235;-83
2022/12/24 10:21:16;;;;;;;40.93;9.47;;;;;;;;;;5094067;28;20224;-83
2022/12/24 10:23:45;;;;;;;38.47;9.50;;;;;;;;;;5093446;28;20232;-87
2022/12/24 10:26:11;;;;;;;37.13;8.93;;;;;;;;;;5074171;28;20175;-87
2022/12/24 10:28:48;;;;;;;35.37;9.23;;;;;;;;;;5073009;28;20240;-82
2022/12/24 10:31:14;;;;;;;37.90;9.40;;;;;;;;;;5072563;28;20179;-82
2022/12/24 10:33:45;;;;;;;37.33;8.57;;;;;;;;;;5072699;28;20187;-82
2022/12/24 10:36:17;;;;;;;38.57;8.87;;;;;;;;;;5055845;28;20218;-83
2022/12/24 10:38:43;;;;;;;34.27;8.83;;;;;;;;;;5072628;28;20182;-82
2022/12/24 10:41:09;;;;;;;34.40;8.17;;;;;;;;;;5072593;28;20245;-82
2022/12/24 10:43:36;;;;;;;38.73;8.47;;;;;;;;;;5055912;28;20187;-82
2022/12/24 10:46:06;;;;;;;33.37;8.00;;;;;;;;;;5088566;28;20273;-86
2022/12/24 10:48:40;;;;;;;34.47;8.07;;;;;;;;;;5093511;28;20221;-85
2022/12/24 10:51:12;;;;;;;35.43;8.60;;;;;;;;;;5093207;28;20178;-85
2022/12/24 10:53:48;;;;;;;26.57;7.93;;;;;;;;;;5092975;28;20178;-82
2022/12/24 10:56:15;;;;;;;29.27;7.83;;;;;;;;;;5092878;28;20244;-82
2022/12/24 10:58:45;;;;;;;32.17;7.30;;;;;;;;;;5092764;28;20171;-83
2022/12/24 11:01:11;;;;;;;23.83;6.30;;;;;;;;;;5076056;28;20222;-83
2022/12/24 11:03:38;;;;;;;29.43;7.77;;;;;;;;;;5076282;28;20250;-85
2022/12/24 11:06:04;;;;;;;35.30;8.17;;;;;;;;;;5072102;28;20260;-82
2022/12/24 11:08:31;;;;;;;30.13;7.90;;;;;;;;;;5072545;28;20183;-88
2022/12/24 11:10:58;;;;;;;29.40;7.30;;;;;;;;;;5073594;28;20194;-87
2022/12/24 11:13:26;;;;;;;28.87;7.40;;;;;;;;;;5072717;28;20179;-88
2022/12/24 11:16:19;;;;;;;30.40;7.93;;;;;;;;;;5075429;28;20211;-88
2022/12/24 11:18:47;;;;;;;32.33;7.00;;;;;;;;;;5074295;28;20183;-88
2022/12/24 11:21:18;;;;;;;32.70;7.37;;;;;;;;;;5076036;28;20182;-88
2022/12/24 11:23:49;;;;;;;33.33;7.57;;;;;;;;;;5091023;28;20179;-87
2022/12/24 11:26:20;;;;;;;32.07;7.40;;;;;;;;;;5087841;28;20179;-88
2022/12/24 11:29:02;;;;;;;27.57;6.67;;;;;;;;;;5089102;28;20187;-87
2022/12/24 11:31:31;;;;;;;32.03;7.13;;;;;;;;;;5075762;28;20183;-88
2022/12/24 11:33:58;;;;;;;28.87;6.87;;;;;;;;;;5059642;28;20188;-87
2022/12/24 11:36:26;;;;;;;32.43;7.30;;;;;;;;;;5076945;28;20293;-82
2022/12/24 11:38:53;;;;;;;29.63;6.77;;;;;;;;;;5059401;28;20183;-82
2022/12/24 11:41:19;;;;;;;31.87;7.43;;;;;;;;;;5075647;28;20206;-82
2022/12/24 11:43:49;;;;;;;31.47;7.03;;;;;;;;;;5076005;28;20175;-82
2022/12/24 11:46:17;;;;;;;31.10;6.90;;;;;;;;;;5075718;28;20183;-82
2022/12/24 11:48:44;;;;;;;34.57;6.50;;;;;;;;;;5075584;28;20236;-82
2022/12/24 11:51:28;;;;;;;34.03;6.90;;;;;;;;;;5075433;28;20179;-82
2022/12/24 11:54:04;;;;;;;31.33;7.00;;;;;;;;;;5075631;28;20182;-82
2022/12/24 11:56:38;;;;;;;30.07;6.70;;;;;;;;;;5076414;28;20203;-82
2022/12/24 11:59:28;;;;;;;28.87;8.60;;;;;;;;;;5075316;28;20209;-82
2022/12/24 12:01:56;;;;;;;29.20;6.47;;;;;;;;;;5070152;28;20230;-82
2022/12/24 12:04:33;;;;;;;27.20;6.50;;;;;;;;;;5075592;28;20180;-83
2022/12/24 12:07:14;;;;;;;28.93;6.60;;;;;;;;;;5074640;28;20182;-82
2022/12/24 12:09:51;;;;;;;28.50;6.23;;;;;;;;;;5074689;28;20206;-82
2022/12/24 12:12:21;;;;;;;32.23;6.33;;;;;;;;;;5087451;28;20198;-82
2022/12/24 12:15:05;;;;;;;24.03;6.00;;;;;;;;;;5093867;28;20210;-82
2022/12/24 12:17:49;;;;;;;25.40;6.10;;;;;;;;;;5094647;28;20174;-82
2022/12/24 12:20:24;;;;;;;25.03;6.07;;;;;;;;;;5095090;28;20208;-82
2022/12/24 12:22:57;;;;;;;32.23;6.07;;;;;;;;;;5097223;28;20182;-82
2022/12/24 12:25:27;;;;;;;32.83;6.63;;;;;;;;;;5095418;28;20273;-86
2022/12/24 12:27:55;;;;;;;29.10;6.43;;;;;;;;;;5094425;28;20213;-86
2022/12/24 12:30:23;;;;;;;31.83;7.10;;;;;;;;;;5092612;28;20191;-86
2022/12/24 12:33:12;;;;;;;32.40;6.83;;;;;;;;;;5094677;28;20178;-86
2022/12/24 12:35:40;;;;;;;26.27;6.20;;;;;;;;;;5091782;28;20255;-86
2022/12/24 12:38:11;;;;;;;27.43;5.63;;;;;;;;;;5095005;28;20174;-85
2022/12/24 12:40:37;;;;;;;23.93;6.07;;;;;;;;;;5094771;28;20178;-86
2022/12/24 12:43:22;;;;;;;27.97;5.90;;;;;;;;;;5094571;28;20178;-85
2022/12/24 12:45:51;;;;;;;34.60;6.60;;;;;;;;;;5094895;28;20269;-86
2022/12/24 12:48:44;;;;;;;27.77;6.80;;;;;;;;;;5094572;28;20179;-86
2022/12/24 12:51:25;;;;;;;27.50;6.33;;;;;;;;;;5093529;28;20190;-86
2022/12/24 12:54:11;;;;;;;27.87;6.33;;;;;;;;;;5094444;28;20189;-86
2022/12/24 12:56:38;;;;;;;23.63;5.63;;;;;;;;;;5094103;28;20216;-85
2022/12/24 12:59:31;;;;;;;31.93;6.67;;;;;;;;;;5077960;28;20201;-85
2022/12/24 13:02:03;;;;;;;30.77;5.57;;;;;;;;;;5090071;28;20222;-86
2022/12/24 13:04:48;;;;;;;26.53;5.80;;;;;;;;;;5085808;28;20182;-85
2022/12/24 13:07:20;;;;;;;27.23;5.37;;;;;;;;;;5093940;28;20178;-86
2022/12/24 13:09:46;;;;;;;23.90;5.33;;;;;;;;;;5094373;28;20183;-85
2022/12/24 13:12:26;;;;;;;25.37;5.37;;;;;;;;;;5089417;28;20171;-85
2022/12/24 13:15:07;;;;;;;22.63;5.73;;;;;;;;;;5073747;28;20198;-85
2022/12/24 13:17:39;;;;;;;26.67;5.47;;;;;;;;;;5073664;28;20192;-86
2022/12/24 13:20:11;;;;;;;26.00;5.40;;;;;;;;;;5073560;28;20175;-85
2022/12/24 13:22:37;;;;;;;19.97;4.67;;;;;;;;;;5091929;28;20179;-85
2022/12/24 13:25:03;;;;;;;21.13;4.90;;;;;;;;;;5077179;28;20179;-86
2022/12/24 13:27:33;;;;;;;21.57;5.67;;;;;;;;;;5093879;28;20200;-85
2022/12/24 13:30:18;;;;;;;22.73;4.93;;;;;;;;;;5091649;28;20251;-85
2022/12/24 13:32:51;;;;;;;24.70;5.17;;;;;;;;;;5094265;28;20208;-82
2022/12/24 13:35:20;;;;;;;24.67;4.97;;;;;;;;;;5094620;28;20202;-82
2022/12/24 13:37:47;;;;;;;26.07;5.83;;;;;;;;;;5093100;28;20175;-82
2022/12/24 13:40:16;;;;;;;23.90;4.80;;;;;;;;;;5094620;28;20175;-83
2022/12/24 13:42:45;;;;;;;26.67;5.37;;;;;;;;;;5093495;28;20185;-82
2022/12/24 13:45:33;;;;;;;22.77;4.90;;;;;;;;;;5093205;28;20185;-82
2022/12/24 13:48:05;;;;;;;24.43;5.20;;;;;;;;;;5093230;28;20185;-82
2022/12/24 13:50:36;;;;;;;21.10;4.60;;;;;;;;;;5093226;28;20183;-88
2022/12/24 13:53:03;;;;;;;28.53;5.33;;;;;;;;;;5094265;28;20182;-88
2022/12/24 13:55:30;;;;;;;29.03;5.73;;;;;;;;;;5093206;28;20215;-88
2022/12/24 13:58:05;;;;;;;28.83;6.00;;;;;;;;;;5092846;28;20199;-88
2022/12/24 14:00:33;;;;;;;27.30;5.73;;;;;;;;;;5092937;28;20197;-88
2022/12/24 14:03:02;;;;;;;25.83;5.87;;;;;;;;;;5093012;28;20246;-87
2022/12/24 14:05:31;;;;;;;23.73;5.30;;;;;;;;;;5093313;28;20178;-87
2022/12/24 14:07:58;;;;;;;25.17;5.20;;;;;;;;;;5093119;28;20179;-88
2022/12/24 14:10:27;;;;;;;25.90;5.13;;;;;;;;;;5100405;28;20208;-82
2022/12/24 14:12:53;;;;;;;20.53;5.00;;;;;;;;;;5103311;28;20210;-82
2022/12/24 14:15:38;;;;;;;28.87;6.00;;;;;;;;;;5094723;28;20229;-83
2022/12/24 14:18:05;;;;;;;29.63;5.67;;;;;;;;;;5093868;28;20205;-82
2022/12/24 14:20:32;;;;;;;27.07;7.20;;;;;;;;;;5092671;28;20175;-82
2022/12/24 14:22:58;;;;;;;23.10;6.70;;;;;;;;;;5092536;28;20412;-82
2022/12/24 14:25:25;;;;;;;31.97;6.90;;;;;;;;;;5092990;28;20206;-82
2022/12/24 14:27:59;;;;;;;24.70;6.20;;;;;;;;;;5094158;28;20181;-82
2022/12/24 14:30:26;;;;;;;26.30;5.90;;;;;;;;;;5093507;28;20177;-82
2022/12/24 14:32:53;;;;;;;25.83;5.20;;;;;;;;;;5092847;28;20243;-82
2022/12/24 14:35:20;;;;;;;26.60;5.70;;;;;;;;;;5093911;28;20194;-86
2022/12/24 14:37:51;;;;;;;23.97;5.80;;;;;;;;;;5092847;28;20174;-86
2022/12/24 14:40:19;;;;;;;23.23;5.17;;;;;;;;;;5093698;28;20171;-82
2022/12/24 14:42:52;;;;;;;21.07;5.07;;;;;;;;;;5092667;28;20266;-82
2022/12/24 14:45:39;;;;;;;22.57;5.13;;;;;;;;;;5094443;28;20189;-82
2022/12/24 14:48:05;;;;;;;19.63;5.03;;;;;;;;;;5093756;28;20183;-82
2022/12/24 14:50:34;;;;;;;24.03;5.63;;;;;;;;;;5098052;28;20185;-82